Terminal Aerodrome Forecast
Issued by NWS Binghamton, NY

Home | Current Version | Previous Version | Text Only | Print | Product List | Glossary On
Versions: 1 2 3 4 5 6 7 8 9 10 11 12 13 14 15 16 17 18 19 20 21
000
FTUS41 KBGM 292328
TAFAVP
TAF
KAVP 292328Z 3000/3024 33011KT P6SM OVC050
     FM300400 VRB03KT P6SM SCT040 BKN200
     FM301100 00000KT P6SM BKN100
     FM301600 16009KT P6SM BKN040
     FM302000 14011G20KT P6SM SCT050 BKN090=

USA.gov is the U.S. government's official web portal to all federal, state and local government web resources and services.